sensor_id;sensor_type;location;lat;lon;timestamp;temperature;humidity
15483;DHT22;7843;50.330;7.312;2023-04-03T00:00:36;4.10;90.00
15483;DHT22;7843;50.330;7.312;2023-04-03T00:03:03;4.10;90.20
15483;DHT22;7843;50.330;7.312;2023-04-03T00:05:30;4.10;90.50
15483;DHT22;7843;50.330;7.312;2023-04-03T00:07:56;4.10;91.20
15483;DHT22;7843;50.330;7.312;2023-04-03T00:10:23;4.10;90.20
15483;DHT22;7843;50.330;7.312;2023-04-03T00:12:50;4.10;90.30
15483;DHT22;7843;50.330;7.312;2023-04-03T00:15:16;4.10;90.70
15483;DHT22;7843;50.330;7.312;2023-04-03T00:17:43;4.10;90.90
15483;DHT22;7843;50.330;7.312;2023-04-03T00:20:10;4.20;91.30
15483;DHT22;7843;50.330;7.312;2023-04-03T00:22:37;4.10;90.90
15483;DHT22;7843;50.330;7.312;2023-04-03T00:25:04;4.20;91.20
15483;DHT22;7843;50.330;7.312;2023-04-03T00:27:31;4.20;90.90
15483;DHT22;7843;50.330;7.312;2023-04-03T00:29:57;4.20;91.20
15483;DHT22;7843;50.330;7.312;2023-04-03T00:32:24;4.20;91.40
15483;DHT22;7843;50.330;7.312;2023-04-03T00:34:51;4.20;90.50
15483;DHT22;7843;50.330;7.312;2023-04-03T00:37:17;4.20;91.50
15483;DHT22;7843;50.330;7.312;2023-04-03T00:39:44;4.20;91.30
15483;DHT22;7843;50.330;7.312;2023-04-03T00:42:11;4.20;91.20
15483;DHT22;7843;50.330;7.312;2023-04-03T00:47:08;4.20;91.70
15483;DHT22;7843;50.330;7.312;2023-04-03T00:49:37;4.30;90.60
15483;DHT22;7843;50.330;7.312;2023-04-03T00:52:05;4.20;91.50
15483;DHT22;7843;50.330;7.312;2023-04-03T00:54:35;4.20;92.20
15483;DHT22;7843;50.330;7.312;2023-04-03T00:57:03;4.30;91.90
15483;DHT22;7843;50.330;7.312;2023-04-03T00:59:35;4.30;92.60
15483;DHT22;7843;50.330;7.312;2023-04-03T01:02:03;4.30;92.00
15483;DHT22;7843;50.330;7.312;2023-04-03T01:04:34;4.20;91.90
15483;DHT22;7843;50.330;7.312;2023-04-03T01:09:39;4.30;92.10
15483;DHT22;7843;50.330;7.312;2023-04-03T01:12:19;4.30;92.20
15483;DHT22;7843;50.330;7.312;2023-04-03T01:14:50;4.30;92.80
15483;DHT22;7843;50.330;7.312;2023-04-03T01:25:39;4.30;93.50
15483;DHT22;7843;50.330;7.312;2023-04-03T01:28:08;4.30;93.80
15483;DHT22;7843;50.330;7.312;2023-04-03T01:30:50;4.30;94.20
15483;DHT22;7843;50.330;7.312;2023-04-03T01:33:19;4.30;94.10
15483;DHT22;7843;50.330;7.312;2023-04-03T01:35:46;4.30;93.60
15483;DHT22;7843;50.330;7.312;2023-04-03T01:38:13;4.30;93.40
15483;DHT22;7843;50.330;7.312;2023-04-03T01:40:40;4.30;93.50
15483;DHT22;7843;50.330;7.312;2023-04-03T01:43:06;4.20;94.20
15483;DHT22;7843;50.330;7.312;2023-04-03T01:45:36;4.20;94.30
15483;DHT22;7843;50.330;7.312;2023-04-03T01:48:03;4.20;94.40
15483;DHT22;7843;50.330;7.312;2023-04-03T01:50:30;4.20;93.80
15483;DHT22;7843;50.330;7.312;2023-04-03T01:53:00;4.20;94.00
15483;DHT22;7843;50.330;7.312;2023-04-03T01:55:27;4.20;94.30
15483;DHT22;7843;50.330;7.312;2023-04-03T01:57:53;4.20;94.70
15483;DHT22;7843;50.330;7.312;2023-04-03T02:00:20;4.20;94.90
15483;DHT22;7843;50.330;7.312;2023-04-03T02:02:47;4.20;95.00
15483;DHT22;7843;50.330;7.312;2023-04-03T02:05:14;4.20;95.00
15483;DHT22;7843;50.330;7.312;2023-04-03T02:07:41;4.10;95.00
15483;DHT22;7843;50.330;7.312;2023-04-03T02:10:08;4.10;95.20
15483;DHT22;7843;50.330;7.312;2023-04-03T02:12:37;4.10;95.40
15483;DHT22;7843;50.330;7.312;2023-04-03T02:15:04;4.10;94.70
15483;DHT22;7843;50.330;7.312;2023-04-03T02:17:31;4.10;94.50
15483;DHT22;7843;50.330;7.312;2023-04-03T02:19:58;4.10;94.70
15483;DHT22;7843;50.330;7.312;2023-04-03T02:22:24;4.20;94.00
15483;DHT22;7843;50.330;7.312;2023-04-03T02:24:51;4.20;93.70
15483;DHT22;7843;50.330;7.312;2023-04-03T02:27:18;4.20;93.80
15483;DHT22;7843;50.330;7.312;2023-04-03T02:29:45;4.20;93.70
15483;DHT22;7843;50.330;7.312;2023-04-03T02:32:11;4.10;93.90
15483;DHT22;7843;50.330;7.312;2023-04-03T02:34:38;4.20;94.30
15483;DHT22;7843;50.330;7.312;2023-04-03T02:37:05;4.20;94.40
15483;DHT22;7843;50.330;7.312;2023-04-03T02:39:32;4.10;94.50
15483;DHT22;7843;50.330;7.312;2023-04-03T02:41:59;4.20;94.70
15483;DHT22;7843;50.330;7.312;2023-04-03T02:44:26;4.20;94.40
15483;DHT22;7843;50.330;7.312;2023-04-03T02:46:52;4.20;94.30
15483;DHT22;7843;50.330;7.312;2023-04-03T02:49:19;4.20;94.60
15483;DHT22;7843;50.330;7.312;2023-04-03T02:51:46;4.20;94.70
15483;DHT22;7843;50.330;7.312;2023-04-03T02:54:13;4.20;94.20
15483;DHT22;7843;50.330;7.312;2023-04-03T02:56:40;4.20;93.80
15483;DHT22;7843;50.330;7.312;2023-04-03T02:59:07;4.20;94.00
15483;DHT22;7843;50.330;7.312;2023-04-03T03:01:36;4.20;94.30
15483;DHT22;7843;50.330;7.312;2023-04-03T03:04:03;4.20;94.50
15483;DHT22;7843;50.330;7.312;2023-04-03T03:06:29;4.20;94.90
15483;DHT22;7843;50.330;7.312;2023-04-03T03:08:56;4.20;95.10
15483;DHT22;7843;50.330;7.312;2023-04-03T03:11:23;4.20;94.90
15483;DHT22;7843;50.330;7.312;2023-04-03T03:13:50;4.20;94.90
15483;DHT22;7843;50.330;7.312;2023-04-03T03:16:16;4.20;94.60
15483;DHT22;7843;50.330;7.312;2023-04-03T03:18:43;4.20;94.40
15483;DHT22;7843;50.330;7.312;2023-04-03T03:21:10;4.20;94.50
15483;DHT22;7843;50.330;7.312;2023-04-03T03:23:37;4.10;94.30
15483;DHT22;7843;50.330;7.312;2023-04-03T03:26:06;4.10;94.00
15483;DHT22;7843;50.330;7.312;2023-04-03T03:28:34;4.10;93.90
15483;DHT22;7843;50.330;7.312;2023-04-03T03:31:01;4.10;94.40
15483;DHT22;7843;50.330;7.312;2023-04-03T03:33:28;4.10;94.30
15483;DHT22;7843;50.330;7.312;2023-04-03T03:35:55;4.10;94.00
15483;DHT22;7843;50.330;7.312;2023-04-03T03:38:23;4.00;94.00
15483;DHT22;7843;50.330;7.312;2023-04-03T03:40:50;4.00;94.30
15483;DHT22;7843;50.330;7.312;2023-04-03T03:43:18;4.00;94.40
15483;DHT22;7843;50.330;7.312;2023-04-03T03:45:45;4.00;94.40
15483;DHT22;7843;50.330;7.312;2023-04-03T03:48:12;3.90;94.50
15483;DHT22;7843;50.330;7.312;2023-04-03T03:50:39;3.90;95.10
15483;DHT22;7843;50.330;7.312;2023-04-03T03:53:06;3.90;94.90
15483;DHT22;7843;50.330;7.312;2023-04-03T03:55:32;3.90;94.80
15483;DHT22;7843;50.330;7.312;2023-04-03T03:57:59;3.90;94.90
15483;DHT22;7843;50.330;7.312;2023-04-03T04:00:28;3.80;94.50
15483;DHT22;7843;50.330;7.312;2023-04-03T04:02:54;3.90;94.70
15483;DHT22;7843;50.330;7.312;2023-04-03T04:05:23;3.90;94.30
15483;DHT22;7843;50.330;7.312;2023-04-03T04:07:49;3.90;94.40
15483;DHT22;7843;50.330;7.312;2023-04-03T04:10:17;3.80;94.70
15483;DHT22;7843;50.330;7.312;2023-04-03T04:12:44;3.80;95.10
15483;DHT22;7843;50.330;7.312;2023-04-03T04:15:10;3.80;95.20
15483;DHT22;7843;50.330;7.312;2023-04-03T04:17:37;3.80;95.30
15483;DHT22;7843;50.330;7.312;2023-04-03T04:20:04;3.70;95.10
15483;DHT22;7843;50.330;7.312;2023-04-03T04:22:31;3.70;95.20
15483;DHT22;7843;50.330;7.312;2023-04-03T04:24:58;3.70;95.40
15483;DHT22;7843;50.330;7.312;2023-04-03T04:27:24;3.60;95.80
15483;DHT22;7843;50.330;7.312;2023-04-03T04:29:51;3.60;96.30
15483;DHT22;7843;50.330;7.312;2023-04-03T04:32:18;3.60;96.00
15483;DHT22;7843;50.330;7.312;2023-04-03T04:34:44;3.50;95.90
15483;DHT22;7843;50.330;7.312;2023-04-03T04:37:11;3.50;96.10
15483;DHT22;7843;50.330;7.312;2023-04-03T04:39:38;3.40;96.30
15483;DHT22;7843;50.330;7.312;2023-04-03T04:42:04;3.40;96.50
15483;DHT22;7843;50.330;7.312;2023-04-03T04:44:33;3.30;96.60
15483;DHT22;7843;50.330;7.312;2023-04-03T04:47:00;3.20;96.80
15483;DHT22;7843;50.330;7.312;2023-04-03T04:49:27;3.10;97.10
15483;DHT22;7843;50.330;7.312;2023-04-03T04:51:53;3.00;97.40
15483;DHT22;7843;50.330;7.312;2023-04-03T04:54:20;2.90;97.50
15483;DHT22;7843;50.330;7.312;2023-04-03T04:56:47;2.80;97.60
15483;DHT22;7843;50.330;7.312;2023-04-03T04:59:13;2.70;97.60
15483;DHT22;7843;50.330;7.312;2023-04-03T05:01:40;2.60;97.70
15483;DHT22;7843;50.330;7.312;2023-04-03T05:04:07;2.50;97.80
15483;DHT22;7843;50.330;7.312;2023-04-03T05:06:34;2.50;98.00
15483;DHT22;7843;50.330;7.312;2023-04-03T05:09:01;2.40;98.00
15483;DHT22;7843;50.330;7.312;2023-04-03T05:11:28;2.30;98.10
15483;DHT22;7843;50.330;7.312;2023-04-03T05:13:55;2.20;98.50
15483;DHT22;7843;50.330;7.312;2023-04-03T05:16:21;2.20;98.60
15483;DHT22;7843;50.330;7.312;2023-04-03T05:18:48;2.10;98.60
15483;DHT22;7843;50.330;7.312;2023-04-03T05:21:15;2.10;98.50
15483;DHT22;7843;50.330;7.312;2023-04-03T05:23:42;2.00;98.50
15483;DHT22;7843;50.330;7.312;2023-04-03T05:26:08;2.00;98.50
15483;DHT22;7843;50.330;7.312;2023-04-03T05:28:35;2.00;98.60
15483;DHT22;7843;50.330;7.312;2023-04-03T05:31:02;2.00;98.70
15483;DHT22;7843;50.330;7.312;2023-04-03T05:33:29;2.10;98.90
15483;DHT22;7843;50.330;7.312;2023-04-03T05:35:56;2.10;98.70
15483;DHT22;7843;50.330;7.312;2023-04-03T05:38:23;2.10;98.70
15483;DHT22;7843;50.330;7.312;2023-04-03T05:40:49;2.10;98.70
15483;DHT22;7843;50.330;7.312;2023-04-03T05:43:16;2.10;98.70
15483;DHT22;7843;50.330;7.312;2023-04-03T05:45:43;2.10;98.70
15483;DHT22;7843;50.330;7.312;2023-04-03T05:48:11;2.20;98.60
15483;DHT22;7843;50.330;7.312;2023-04-03T05:50:37;2.10;98.40
15483;DHT22;7843;50.330;7.312;2023-04-03T05:53:14;2.10;98.50
15483;DHT22;7843;50.330;7.312;2023-04-03T05:55:42;2.10;98.50
15483;DHT22;7843;50.330;7.312;2023-04-03T05:58:09;2.20;98.30
15483;DHT22;7843;50.330;7.312;2023-04-03T06:00:37;2.20;98.20
15483;DHT22;7843;50.330;7.312;2023-04-03T06:03:03;2.30;98.20
15483;DHT22;7843;50.330;7.312;2023-04-03T06:05:30;2.30;98.00
15483;DHT22;7843;50.330;7.312;2023-04-03T06:07:57;2.30;98.50
15483;DHT22;7843;50.330;7.312;2023-04-03T06:10:24;2.40;98.20
15483;DHT22;7843;50.330;7.312;2023-04-03T06:12:51;2.50;98.40
15483;DHT22;7843;50.330;7.312;2023-04-03T06:15:17;2.50;98.50
15483;DHT22;7843;50.330;7.312;2023-04-03T06:17:44;2.50;99.00
15483;DHT22;7843;50.330;7.312;2023-04-03T06:20:12;2.60;99.00
15483;DHT22;7843;50.330;7.312;2023-04-03T06:22:38;2.70;98.80
15483;DHT22;7843;50.330;7.312;2023-04-03T06:25:06;2.70;98.60
15483;DHT22;7843;50.330;7.312;2023-04-03T06:27:32;2.80;98.40
15483;DHT22;7843;50.330;7.312;2023-04-03T06:29:59;2.90;97.70
15483;DHT22;7843;50.330;7.312;2023-04-03T06:32:26;2.90;97.40
15483;DHT22;7843;50.330;7.312;2023-04-03T06:34:53;3.00;97.70
15483;DHT22;7843;50.330;7.312;2023-04-03T06:37:21;3.00;97.30
15483;DHT22;7843;50.330;7.312;2023-04-03T06:39:48;3.00;97.10
15483;DHT22;7843;50.330;7.312;2023-04-03T06:42:15;3.10;97.20
15483;DHT22;7843;50.330;7.312;2023-04-03T06:44:42;3.10;96.90
15483;DHT22;7843;50.330;7.312;2023-04-03T06:47:13;3.10;96.80
15483;DHT22;7843;50.330;7.312;2023-04-03T06:49:40;3.20;95.30
15483;DHT22;7843;50.330;7.312;2023-04-03T06:52:08;3.10;94.40
15483;DHT22;7843;50.330;7.312;2023-04-03T06:54:35;3.20;95.00
15483;DHT22;7843;50.330;7.312;2023-04-03T06:57:02;3.20;95.10
15483;DHT22;7843;50.330;7.312;2023-04-03T06:59:29;3.30;95.20
15483;DHT22;7843;50.330;7.312;2023-04-03T07:01:56;3.30;95.70
15483;DHT22;7843;50.330;7.312;2023-04-03T07:04:22;3.40;94.50
15483;DHT22;7843;50.330;7.312;2023-04-03T07:06:49;3.50;94.70
15483;DHT22;7843;50.330;7.312;2023-04-03T07:09:16;3.50;94.80
15483;DHT22;7843;50.330;7.312;2023-04-03T07:11:43;3.50;94.50
15483;DHT22;7843;50.330;7.312;2023-04-03T07:14:10;3.60;94.30
15483;DHT22;7843;50.330;7.312;2023-04-03T07:16:37;3.60;93.00
15483;DHT22;7843;50.330;7.312;2023-04-03T07:19:05;3.60;93.10
15483;DHT22;7843;50.330;7.312;2023-04-03T07:21:32;3.60;93.40
15483;DHT22;7843;50.330;7.312;2023-04-03T07:23:58;3.70;92.60
15483;DHT22;7843;50.330;7.312;2023-04-03T07:26:25;3.70;92.60
15483;DHT22;7843;50.330;7.312;2023-04-03T07:28:52;3.80;91.90
15483;DHT22;7843;50.330;7.312;2023-04-03T07:31:19;3.80;92.20
15483;DHT22;7843;50.330;7.312;2023-04-03T07:33:46;3.90;92.00
15483;DHT22;7843;50.330;7.312;2023-04-03T07:36:17;3.90;91.90
15483;DHT22;7843;50.330;7.312;2023-04-03T07:38:43;3.90;91.20
15483;DHT22;7843;50.330;7.312;2023-04-03T07:41:16;4.00;90.90
15483;DHT22;7843;50.330;7.312;2023-04-03T07:43:44;4.10;91.30
15483;DHT22;7843;50.330;7.312;2023-04-03T07:46:11;4.20;91.00
15483;DHT22;7843;50.330;7.312;2023-04-03T07:48:38;4.20;90.70
15483;DHT22;7843;50.330;7.312;2023-04-03T07:51:05;4.30;90.50
15483;DHT22;7843;50.330;7.312;2023-04-03T07:53:32;4.30;90.40
15483;DHT22;7843;50.330;7.312;2023-04-03T07:55:59;4.30;90.50
15483;DHT22;7843;50.330;7.312;2023-04-03T07:58:26;4.30;89.80
15483;DHT22;7843;50.330;7.312;2023-04-03T08:00:53;4.40;90.10
15483;DHT22;7843;50.330;7.312;2023-04-03T08:03:20;4.50;89.90
15483;DHT22;7843;50.330;7.312;2023-04-03T08:05:49;4.50;88.70
15483;DHT22;7843;50.330;7.312;2023-04-03T08:08:18;4.50;89.60
15483;DHT22;7843;50.330;7.312;2023-04-03T08:10:51;4.60;89.50
15483;DHT22;7843;50.330;7.312;2023-04-03T08:13:19;4.70;89.00
15483;DHT22;7843;50.330;7.312;2023-04-03T08:15:46;4.70;88.60
15483;DHT22;7843;50.330;7.312;2023-04-03T08:18:14;4.80;88.30
15483;DHT22;7843;50.330;7.312;2023-04-03T08:20:41;4.80;87.60
15483;DHT22;7843;50.330;7.312;2023-04-03T08:23:08;4.90;89.10
15483;DHT22;7843;50.330;7.312;2023-04-03T08:25:41;4.90;88.10
15483;DHT22;7843;50.330;7.312;2023-04-03T08:28:09;5.00;88.60
15483;DHT22;7843;50.330;7.312;2023-04-03T08:30:39;5.10;88.50
15483;DHT22;7843;50.330;7.312;2023-04-03T08:33:06;5.20;87.90
15483;DHT22;7843;50.330;7.312;2023-04-03T08:35:41;5.20;87.10
15483;DHT22;7843;50.330;7.312;2023-04-03T08:38:08;5.30;87.20
15483;DHT22;7843;50.330;7.312;2023-04-03T08:40:35;5.30;86.40
15483;DHT22;7843;50.330;7.312;2023-04-03T08:45:53;5.50;85.80
15483;DHT22;7843;50.330;7.312;2023-04-03T08:50:56;5.60;85.10
15483;DHT22;7843;50.330;7.312;2023-04-03T08:53:29;5.60;85.00
15483;DHT22;7843;50.330;7.312;2023-04-03T08:56:00;5.80;86.40
15483;DHT22;7843;50.330;7.312;2023-04-03T08:58:30;5.80;86.00
15483;DHT22;7843;50.330;7.312;2023-04-03T09:03:31;5.90;85.50
15483;DHT22;7843;50.330;7.312;2023-04-03T09:06:22;5.90;85.40
15483;DHT22;7843;50.330;7.312;2023-04-03T09:17:00;6.20;84.70
15483;DHT22;7843;50.330;7.312;2023-04-03T09:22:13;6.50;84.70
15483;DHT22;7843;50.330;7.312;2023-04-03T09:24:45;6.70;83.90
15483;DHT22;7843;50.330;7.312;2023-04-03T09:27:13;6.90;84.40
15483;DHT22;7843;50.330;7.312;2023-04-03T09:29:42;7.00;83.90
15483;DHT22;7843;50.330;7.312;2023-04-03T09:32:28;7.00;83.60
15483;DHT22;7843;50.330;7.312;2023-04-03T09:34:59;7.10;83.10
15483;DHT22;7843;50.330;7.312;2023-04-03T09:37:41;7.10;83.50
15483;DHT22;7843;50.330;7.312;2023-04-03T09:40:33;7.10;83.60
15483;DHT22;7843;50.330;7.312;2023-04-03T09:43:53;6.90;82.80
15483;DHT22;7843;50.330;7.312;2023-04-03T09:46:31;6.60;83.20
15483;DHT22;7843;50.330;7.312;2023-04-03T09:49:00;6.50;84.00
15483;DHT22;7843;50.330;7.312;2023-04-03T09:51:33;6.50;83.60
15483;DHT22;7843;50.330;7.312;2023-04-03T09:54:00;6.50;83.70
15483;DHT22;7843;50.330;7.312;2023-04-03T09:56:29;6.60;83.60
15483;DHT22;7843;50.330;7.312;2023-04-03T10:01:34;7.30;82.80
15483;DHT22;7843;50.330;7.312;2023-04-03T10:04:18;7.50;81.50
15483;DHT22;7843;50.330;7.312;2023-04-03T10:06:49;7.60;81.30
15483;DHT22;7843;50.330;7.312;2023-04-03T10:09:21;7.70;81.10
15483;DHT22;7843;50.330;7.312;2023-04-03T10:12:09;7.70;80.30
15483;DHT22;7843;50.330;7.312;2023-04-03T10:14:58;7.90;81.60
15483;DHT22;7843;50.330;7.312;2023-04-03T10:17:38;8.00;80.00
15483;DHT22;7843;50.330;7.312;2023-04-03T10:28:57;7.80;78.90
15483;DHT22;7843;50.330;7.312;2023-04-03T10:31:25;7.90;78.20
15483;DHT22;7843;50.330;7.312;2023-04-03T10:33:59;7.80;76.00
15483;DHT22;7843;50.330;7.312;2023-04-03T10:45:01;7.90;77.50
15483;DHT22;7843;50.330;7.312;2023-04-03T10:47:40;8.00;77.00
15483;DHT22;7843;50.330;7.312;2023-04-03T10:50:22;8.00;75.90
15483;DHT22;7843;50.330;7.312;2023-04-03T10:53:00;8.10;76.10
15483;DHT22;7843;50.330;7.312;2023-04-03T10:55:36;8.20;76.30
15483;DHT22;7843;50.330;7.312;2023-04-03T10:58:05;8.20;76.60
15483;DHT22;7843;50.330;7.312;2023-04-03T11:00:43;8.40;77.50
15483;DHT22;7843;50.330;7.312;2023-04-03T11:03:16;8.40;76.40
15483;DHT22;7843;50.330;7.312;2023-04-03T11:05:47;8.20;75.90
15483;DHT22;7843;50.330;7.312;2023-04-03T11:08:24;8.10;74.60
15483;DHT22;7843;50.330;7.312;2023-04-03T11:10:57;8.20;72.50
15483;DHT22;7843;50.330;7.312;2023-04-03T11:13:44;8.30;73.70
15483;DHT22;7843;50.330;7.312;2023-04-03T11:16:35;8.50;73.70
15483;DHT22;7843;50.330;7.312;2023-04-03T11:19:18;8.40;73.60
15483;DHT22;7843;50.330;7.312;2023-04-03T11:24:25;8.50;74.10
15483;DHT22;7843;50.330;7.312;2023-04-03T11:26:55;8.60;73.80
15483;DHT22;7843;50.330;7.312;2023-04-03T11:29:29;8.70;73.70
15483;DHT22;7843;50.330;7.312;2023-04-03T11:34:50;8.80;72.80
15483;DHT22;7843;50.330;7.312;2023-04-03T11:37:30;9.00;74.20
15483;DHT22;7843;50.330;7.312;2023-04-03T11:40:05;9.00;71.00
15483;DHT22;7843;50.330;7.312;2023-04-03T11:42:41;9.00;71.60
15483;DHT22;7843;50.330;7.312;2023-04-03T11:47:51;9.30;71.60
15483;DHT22;7843;50.330;7.312;2023-04-03T11:58:10;9.40;70.90
15483;DHT22;7843;50.330;7.312;2023-04-03T12:05:57;9.40;67.80
15483;DHT22;7843;50.330;7.312;2023-04-03T12:46:18;18.20;49.20
15483;DHT22;7843;50.330;7.312;2023-04-03T12:48:53;18.70;48.90
15483;DHT22;7843;50.330;7.312;2023-04-03T12:51:40;19.10;47.80
15483;DHT22;7843;50.330;7.312;2023-04-03T12:54:30;19.40;46.90
15483;DHT22;7843;50.330;7.312;2023-04-03T12:57:19;19.40;46.50
15483;DHT22;7843;50.330;7.312;2023-04-03T12:59:46;19.60;46.70
15483;DHT22;7843;50.330;7.312;2023-04-03T13:04:51;19.90;45.50
15483;DHT22;7843;50.330;7.312;2023-04-03T13:07:25;19.70;45.40
15483;DHT22;7843;50.330;7.312;2023-04-03T13:09:56;19.80;43.70
15483;DHT22;7843;50.330;7.312;2023-04-03T13:12:23;19.90;43.70
15483;DHT22;7843;50.330;7.312;2023-04-03T13:15:02;19.70;42.80
15483;DHT22;7843;50.330;7.312;2023-04-03T13:17:42;19.60;43.60
15483;DHT22;7843;50.330;7.312;2023-04-03T13:20:16;19.70;45.40
15483;DHT22;7843;50.330;7.312;2023-04-03T13:22:50;20.00;45.00
15483;DHT22;7843;50.330;7.312;2023-04-03T13:25:20;20.10;43.80
15483;DHT22;7843;50.330;7.312;2023-04-03T13:27:47;20.40;43.60
15483;DHT22;7843;50.330;7.312;2023-04-03T13:30:32;20.30;43.00
15483;DHT22;7843;50.330;7.312;2023-04-03T13:33:02;20.40;43.00
15483;DHT22;7843;50.330;7.312;2023-04-03T13:35:31;20.70;43.70
15483;DHT22;7843;50.330;7.312;2023-04-03T13:40:50;21.00;41.20
15483;DHT22;7843;50.330;7.312;2023-04-03T13:43:23;21.20;42.30
15483;DHT22;7843;50.330;7.312;2023-04-03T13:48:54;21.40;41.10
15483;DHT22;7843;50.330;7.312;2023-04-03T13:51:24;21.60;40.90
15483;DHT22;7843;50.330;7.312;2023-04-03T13:53:57;21.50;41.00
15483;DHT22;7843;50.330;7.312;2023-04-03T13:59:21;21.80;41.90
15483;DHT22;7843;50.330;7.312;2023-04-03T14:02:39;21.60;41.10
15483;DHT22;7843;50.330;7.312;2023-04-03T14:04:45;22.10;40.90
15483;DHT22;7843;50.330;7.312;2023-04-03T14:07:14;21.80;39.80
15483;DHT22;7843;50.330;7.312;2023-04-03T14:09:42;21.70;40.80
15483;DHT22;7843;50.330;7.312;2023-04-03T14:12:20;21.90;40.40
15483;DHT22;7843;50.330;7.312;2023-04-03T14:14:53;22.00;40.10
15483;DHT22;7843;50.330;7.312;2023-04-03T14:17:24;22.20;41.30
15483;DHT22;7843;50.330;7.312;2023-04-03T14:19:54;22.20;41.10
15483;DHT22;7843;50.330;7.312;2023-04-03T14:22:24;22.20;41.30
15483;DHT22;7843;50.330;7.312;2023-04-03T14:24:52;22.40;40.30
15483;DHT22;7843;50.330;7.312;2023-04-03T14:29:46;22.10;41.30
15483;DHT22;7843;50.330;7.312;2023-04-03T14:32:15;22.20;41.80
15483;DHT22;7843;50.330;7.312;2023-04-03T14:34:43;22.20;40.60
15483;DHT22;7843;50.330;7.312;2023-04-03T14:37:13;22.40;40.60
15483;DHT22;7843;50.330;7.312;2023-04-03T14:39:40;22.70;41.30
15483;DHT22;7843;50.330;7.312;2023-04-03T14:42:16;22.80;40.40
15483;DHT22;7843;50.330;7.312;2023-04-03T14:44:44;22.70;40.10
15483;DHT22;7843;50.330;7.312;2023-04-03T14:47:16;22.50;39.30
15483;DHT22;7843;50.330;7.312;2023-04-03T14:49:49;22.10;40.00
15483;DHT22;7843;50.330;7.312;2023-04-03T14:52:20;22.30;40.70
15483;DHT22;7843;50.330;7.312;2023-04-03T14:54:48;22.20;41.10
15483;DHT22;7843;50.330;7.312;2023-04-03T14:57:15;22.20;39.80
15483;DHT22;7843;50.330;7.312;2023-04-03T14:59:44;22.20;40.00
15483;DHT22;7843;50.330;7.312;2023-04-03T15:02:25;22.30;40.40
15483;DHT22;7843;50.330;7.312;2023-04-03T15:04:54;22.30;40.10
15483;DHT22;7843;50.330;7.312;2023-04-03T15:07:21;22.10;39.10
15483;DHT22;7843;50.330;7.312;2023-04-03T15:09:49;21.90;39.70
15483;DHT22;7843;50.330;7.312;2023-04-03T15:12:17;21.70;39.50
15483;DHT22;7843;50.330;7.312;2023-04-03T15:14:43;21.40;40.20
15483;DHT22;7843;50.330;7.312;2023-04-03T15:17:17;21.30;40.60
15483;DHT22;7843;50.330;7.312;2023-04-03T15:19:44;21.10;40.80
15483;DHT22;7843;50.330;7.312;2023-04-03T15:22:19;20.50;40.20
15483;DHT22;7843;50.330;7.312;2023-04-03T15:24:46;20.00;41.00
15483;DHT22;7843;50.330;7.312;2023-04-03T15:27:13;19.10;42.30
15483;DHT22;7843;50.330;7.312;2023-04-03T15:29:42;18.80;42.40
15483;DHT22;7843;50.330;7.312;2023-04-03T15:32:09;18.00;42.60
15483;DHT22;7843;50.330;7.312;2023-04-03T15:34:37;17.40;44.30
15483;DHT22;7843;50.330;7.312;2023-04-03T15:37:04;17.40;44.90
15483;DHT22;7843;50.330;7.312;2023-04-03T15:39:31;16.80;45.00
15483;DHT22;7843;50.330;7.312;2023-04-03T15:41:58;16.40;46.30
15483;DHT22;7843;50.330;7.312;2023-04-03T15:44:34;16.00;46.60
15483;DHT22;7843;50.330;7.312;2023-04-03T15:47:02;16.00;46.80
15483;DHT22;7843;50.330;7.312;2023-04-03T15:49:29;16.00;46.50
15483;DHT22;7843;50.330;7.312;2023-04-03T15:51:56;15.80;47.10
15483;DHT22;7843;50.330;7.312;2023-04-03T15:54:24;15.40;48.50
15483;DHT22;7843;50.330;7.312;2023-04-03T15:56:52;14.70;48.70
15483;DHT22;7843;50.330;7.312;2023-04-03T15:59:19;14.40;49.40
15483;DHT22;7843;50.330;7.312;2023-04-03T16:01:46;14.30;49.80
15483;DHT22;7843;50.330;7.312;2023-04-03T16:04:14;13.90;49.50
15483;DHT22;7843;50.330;7.312;2023-04-03T16:06:41;13.90;52.00
15483;DHT22;7843;50.330;7.312;2023-04-03T16:09:08;13.60;52.20
15483;DHT22;7843;50.330;7.312;2023-04-03T16:11:35;13.30;52.10
15483;DHT22;7843;50.330;7.312;2023-04-03T16:14:03;13.00;52.70
15483;DHT22;7843;50.330;7.312;2023-04-03T16:16:30;12.80;52.70
15483;DHT22;7843;50.330;7.312;2023-04-03T16:18:57;12.60;53.20
15483;DHT22;7843;50.330;7.312;2023-04-03T16:21:23;12.20;53.90
15483;DHT22;7843;50.330;7.312;2023-04-03T16:23:51;11.90;54.10
15483;DHT22;7843;50.330;7.312;2023-04-03T16:26:17;11.40;54.50
15483;DHT22;7843;50.330;7.312;2023-04-03T16:28:44;10.90;54.90
15483;DHT22;7843;50.330;7.312;2023-04-03T16:31:11;10.50;56.30
15483;DHT22;7843;50.330;7.312;2023-04-03T16:33:38;10.30;57.70
15483;DHT22;7843;50.330;7.312;2023-04-03T16:36:05;10.10;58.70
15483;DHT22;7843;50.330;7.312;2023-04-03T16:38:33;9.80;59.10
15483;DHT22;7843;50.330;7.312;2023-04-03T16:41:00;9.50;58.50
15483;DHT22;7843;50.330;7.312;2023-04-03T16:43:31;9.20;59.70
15483;DHT22;7843;50.330;7.312;2023-04-03T16:45:59;8.90;60.50
15483;DHT22;7843;50.330;7.312;2023-04-03T16:48:25;8.70;61.10
15483;DHT22;7843;50.330;7.312;2023-04-03T16:50:52;8.60;60.80
15483;DHT22;7843;50.330;7.312;2023-04-03T16:53:21;8.40;62.40
15483;DHT22;7843;50.330;7.312;2023-04-03T16:55:49;8.30;62.70
15483;DHT22;7843;50.330;7.312;2023-04-03T16:58:16;8.20;62.50
15483;DHT22;7843;50.330;7.312;2023-04-03T17:00:42;8.10;62.60
15483;DHT22;7843;50.330;7.312;2023-04-03T17:03:09;8.00;63.60
15483;DHT22;7843;50.330;7.312;2023-04-03T17:05:36;8.00;63.40
15483;DHT22;7843;50.330;7.312;2023-04-03T17:08:03;7.90;61.80
15483;DHT22;7843;50.330;7.312;2023-04-03T17:10:29;7.80;63.20
15483;DHT22;7843;50.330;7.312;2023-04-03T17:12:56;7.70;64.00
15483;DHT22;7843;50.330;7.312;2023-04-03T17:15:23;7.60;63.60
15483;DHT22;7843;50.330;7.312;2023-04-03T17:17:51;7.50;65.00
15483;DHT22;7843;50.330;7.312;2023-04-03T17:20:18;7.50;65.70
15483;DHT22;7843;50.330;7.312;2023-04-03T17:22:46;7.40;66.20
15483;DHT22;7843;50.330;7.312;2023-04-03T17:25:12;7.30;67.40
15483;DHT22;7843;50.330;7.312;2023-04-03T17:27:41;7.20;68.00
15483;DHT22;7843;50.330;7.312;2023-04-03T17:30:08;7.20;68.80
15483;DHT22;7843;50.330;7.312;2023-04-03T17:32:35;7.10;68.80
15483;DHT22;7843;50.330;7.312;2023-04-03T17:35:04;6.90;68.60
15483;DHT22;7843;50.330;7.312;2023-04-03T17:37:31;6.90;68.70
15483;DHT22;7843;50.330;7.312;2023-04-03T17:39:57;6.90;67.00
15483;DHT22;7843;50.330;7.312;2023-04-03T17:42:24;6.70;67.60
15483;DHT22;7843;50.330;7.312;2023-04-03T17:44:51;6.70;68.30
15483;DHT22;7843;50.330;7.312;2023-04-03T17:47:18;6.60;68.90
15483;DHT22;7843;50.330;7.312;2023-04-03T17:49:44;6.50;69.60
15483;DHT22;7843;50.330;7.312;2023-04-03T17:52:11;6.40;69.30
15483;DHT22;7843;50.330;7.312;2023-04-03T17:54:38;6.40;69.40
15483;DHT22;7843;50.330;7.312;2023-04-03T17:57:05;6.40;69.80
15483;DHT22;7843;50.330;7.312;2023-04-03T17:59:32;6.20;69.80
15483;DHT22;7843;50.330;7.312;2023-04-03T18:01:58;6.20;70.90
15483;DHT22;7843;50.330;7.312;2023-04-03T18:04:25;6.10;70.60
15483;DHT22;7843;50.330;7.312;2023-04-03T18:06:54;6.00;70.90
15483;DHT22;7843;50.330;7.312;2023-04-03T18:09:25;5.90;71.60
15483;DHT22;7843;50.330;7.312;2023-04-03T18:11:54;5.80;71.60
15483;DHT22;7843;50.330;7.312;2023-04-03T18:14:24;5.70;72.10